createdAt,value
2023-12-03T00:01:05.915Z,14.30
2023-12-03T00:03:32.740Z,13.00
2023-12-03T00:05:59.669Z,12.48
2023-12-03T00:08:34.921Z,13.40
2023-12-03T00:11:09.908Z,13.73
2023-12-03T00:13:36.441Z,14.75
2023-12-03T00:16:03.072Z,14.80
2023-12-03T00:18:29.759Z,14.65
2023-12-03T00:20:56.666Z,14.43
2023-12-03T00:23:23.446Z,14.95
2023-12-03T00:25:50.281Z,14.23
2023-12-03T00:28:18.371Z,14.48
2023-12-03T00:30:45.422Z,13.02
2023-12-03T00:33:12.138Z,12.88
2023-12-03T00:35:38.811Z,12.77
2023-12-03T00:38:05.592Z,12.05
2023-12-03T00:40:32.297Z,12.23
2023-12-03T00:42:59.029Z,12.52
2023-12-03T00:45:27.188Z,13.30
2023-12-03T00:47:53.855Z,13.02
2023-12-03T00:50:20.665Z,11.63
2023-12-03T00:52:47.244Z,12.05
2023-12-03T00:55:14.041Z,11.27
2023-12-03T00:57:40.821Z,11.75
2023-12-03T01:00:08.683Z,11.27
2023-12-03T01:02:36.721Z,10.80
2023-12-03T01:05:03.690Z,10.25
2023-12-03T01:07:30.292Z,10.65
2023-12-03T01:09:57.049Z,11.35
2023-12-03T01:12:23.856Z,9.52
2023-12-03T01:14:50.664Z,9.70
2023-12-03T01:17:17.288Z,10.10
2023-12-03T01:19:45.272Z,9.60
2023-12-03T01:22:11.881Z,10.50
2023-12-03T01:24:38.559Z,9.52
2023-12-03T01:27:05.381Z,9.63
2023-12-03T01:29:31.995Z,10.68
2023-12-03T01:32:00.020Z,9.40
2023-12-03T01:34:26.724Z,9.05
2023-12-03T01:36:54.784Z,9.95
2023-12-03T01:39:21.474Z,9.88
2023-12-03T01:41:48.151Z,10.60
2023-12-03T01:44:14.774Z,9.70
2023-12-03T01:46:41.517Z,10.23
2023-12-03T01:49:08.273Z,11.00
2023-12-03T01:51:35.828Z,9.88
2023-12-03T01:54:03.928Z,9.70
2023-12-03T01:56:30.503Z,9.88
2023-12-03T01:58:57.585Z,9.68
2023-12-03T02:01:24.518Z,9.55
2023-12-03T02:03:51.482Z,10.63
2023-12-03T02:06:18.381Z,10.68
2023-12-03T02:08:45.323Z,10.43
2023-12-03T02:11:13.693Z,10.40
2023-12-03T02:13:40.330Z,11.25
2023-12-03T02:16:08.404Z,10.55
2023-12-03T02:18:35.514Z,10.00
2023-12-03T02:21:02.749Z,10.13
2023-12-03T02:23:33.601Z,10.32
2023-12-03T02:26:00.650Z,10.02
2023-12-03T02:28:27.367Z,9.50
2023-12-03T02:30:54.078Z,10.15
2023-12-03T02:33:21.081Z,10.48
2023-12-03T02:35:48.547Z,11.55
2023-12-03T02:38:15.262Z,9.95
2023-12-03T02:40:43.310Z,10.57
2023-12-03T02:43:09.941Z,9.68
2023-12-03T02:45:36.645Z,9.82
2023-12-03T02:48:03.984Z,9.15
2023-12-03T02:50:30.695Z,10.13
2023-12-03T02:52:57.284Z,9.75
2023-12-03T02:55:23.946Z,9.13
2023-12-03T02:57:52.025Z,9.45
2023-12-03T03:00:19.566Z,9.05
2023-12-03T03:02:46.215Z,9.10
2023-12-03T03:05:12.874Z,10.02
2023-12-03T03:07:39.643Z,10.10
2023-12-03T03:10:07.351Z,9.82
2023-12-03T03:12:34.165Z,9.48
2023-12-03T03:15:02.349Z,10.20
2023-12-03T03:17:28.905Z,10.77
2023-12-03T03:19:55.682Z,10.18
2023-12-03T03:22:22.285Z,9.35
2023-12-03T03:24:48.952Z,10.32
2023-12-03T03:27:15.696Z,8.93
2023-12-03T03:29:42.379Z,10.32
2023-12-03T03:32:10.741Z,10.13
2023-12-03T03:34:37.364Z,9.48
2023-12-03T03:37:04.249Z,9.27
2023-12-03T03:39:30.892Z,10.43
2023-12-03T03:41:57.625Z,10.13
2023-12-03T03:44:24.258Z,9.55
2023-12-03T03:46:50.977Z,10.43
2023-12-03T03:49:19.091Z,11.23
2023-12-03T03:51:45.884Z,10.38
2023-12-03T03:54:12.667Z,9.65
2023-12-03T03:56:39.377Z,11.32
2023-12-03T03:59:06.046Z,11.00
2023-12-03T04:01:32.671Z,10.48
2023-12-03T04:03:59.395Z,11.60
2023-12-03T04:06:27.703Z,11.73
2023-12-03T04:08:54.438Z,11.38
2023-12-03T04:11:21.138Z,12.88
2023-12-03T04:13:47.757Z,11.98
2023-12-03T04:16:23.729Z,11.63
2023-12-03T04:18:50.417Z,13.07
2023-12-03T04:21:17.319Z,12.85
2023-12-03T04:23:45.454Z,12.10
2023-12-03T04:26:12.151Z,13.00
2023-12-03T04:28:40.135Z,12.90
2023-12-03T04:31:15.669Z,14.07
2023-12-03T04:33:42.265Z,13.20
2023-12-03T04:36:09.825Z,13.02
2023-12-03T04:38:37.162Z,13.30
2023-12-03T04:41:05.950Z,14.15
2023-12-03T04:43:32.624Z,13.45
2023-12-03T04:46:03.046Z,13.20
2023-12-03T04:48:29.776Z,13.77
2023-12-03T04:50:56.479Z,14.38
2023-12-03T04:53:23.076Z,14.32
2023-12-03T04:55:50.002Z,13.10
2023-12-03T04:58:18.091Z,12.77
2023-12-03T05:00:44.937Z,13.45
2023-12-03T05:03:11.759Z,12.95
2023-12-03T05:05:38.411Z,13.18
2023-12-03T05:08:05.717Z,13.27
2023-12-03T05:10:32.391Z,14.00
2023-12-03T05:12:59.046Z,11.95
2023-12-03T05:15:27.094Z,13.35
2023-12-03T05:17:53.758Z,12.10
2023-12-03T05:20:20.489Z,12.80
2023-12-03T05:22:47.184Z,13.23
2023-12-03T05:25:14.209Z,13.88
2023-12-03T05:27:40.876Z,13.65
2023-12-03T05:30:08.609Z,13.82
2023-12-03T05:32:36.669Z,13.38
2023-12-03T05:35:03.579Z,13.70
2023-12-03T05:37:30.514Z,13.00
2023-12-03T05:39:57.176Z,13.82
2023-12-03T05:42:23.811Z,12.68
2023-12-03T05:44:50.407Z,13.77
2023-12-03T05:47:17.751Z,13.40
2023-12-03T05:49:46.121Z,13.95
2023-12-03T05:52:12.873Z,12.93
2023-12-03T05:54:42.923Z,13.52
2023-12-03T05:57:09.703Z,13.95
2023-12-03T05:59:36.310Z,13.65
2023-12-03T06:02:03.087Z,13.88
2023-12-03T06:04:29.847Z,14.23
2023-12-03T06:06:57.960Z,13.40
2023-12-03T06:09:24.689Z,13.75
2023-12-03T06:11:51.335Z,14.38
2023-12-03T06:14:18.076Z,13.23
2023-12-03T06:16:44.741Z,14.23
2023-12-03T06:19:11.649Z,14.10
2023-12-03T06:21:38.524Z,13.57
2023-12-03T06:24:06.776Z,13.90
2023-12-03T06:26:33.382Z,13.80
2023-12-03T06:28:59.998Z,13.60
2023-12-03T06:31:26.718Z,13.80
2023-12-03T06:33:53.622Z,14.40
2023-12-03T06:36:21.340Z,13.93
2023-12-03T06:38:48.203Z,13.65
2023-12-03T06:41:16.640Z,14.60
2023-12-03T06:43:43.268Z,13.80
2023-12-03T06:46:09.925Z,13.77
2023-12-03T06:48:36.694Z,15.65
2023-12-03T06:51:03.686Z,14.85
2023-12-03T06:53:30.318Z,14.25
2023-12-03T06:55:57.055Z,14.45
2023-12-03T06:58:25.081Z,13.82
2023-12-03T07:00:52.117Z,13.90
2023-12-03T07:03:18.744Z,15.95
2023-12-03T07:05:45.575Z,15.20
2023-12-03T07:08:12.315Z,14.07
2023-12-03T07:10:39.045Z,14.38
2023-12-03T07:13:05.689Z,14.40
2023-12-03T07:15:33.828Z,14.85
2023-12-03T07:18:01.721Z,13.80
2023-12-03T07:20:28.291Z,13.75
2023-12-03T07:22:54.869Z,13.75
2023-12-03T07:25:21.481Z,13.10
2023-12-03T07:27:48.192Z,13.57
2023-12-03T07:30:15.348Z,11.82
2023-12-03T07:32:43.366Z,12.23
2023-12-03T07:35:10.300Z,11.68
2023-12-03T07:37:40.389Z,13.05
2023-12-03T07:40:08.409Z,12.30
2023-12-03T07:42:35.162Z,12.88
2023-12-03T07:45:02.016Z,11.25
2023-12-03T07:47:28.736Z,12.45
2023-12-03T07:49:57.362Z,13.45
2023-12-03T07:52:24.156Z,13.13
2023-12-03T07:54:50.869Z,11.15
2023-12-03T07:57:17.631Z,12.57
2023-12-03T07:59:44.375Z,12.85
2023-12-03T08:02:11.023Z,12.60
2023-12-03T08:04:37.729Z,11.95
2023-12-03T08:07:05.928Z,11.85
2023-12-03T08:09:32.612Z,20.75
2023-12-03T08:11:59.228Z,17.75
2023-12-03T08:14:25.961Z,15.25
2023-12-03T08:16:52.568Z,11.18
2023-12-03T08:19:19.247Z,12.32
2023-12-03T08:21:45.922Z,12.75
2023-12-03T08:24:14.027Z,12.65
2023-12-03T08:26:40.692Z,13.00
2023-12-03T08:29:07.323Z,12.55
2023-12-03T08:31:33.928Z,10.80
2023-12-03T08:34:00.750Z,10.77
2023-12-03T08:36:27.788Z,12.40
2023-12-03T08:38:54.446Z,11.57
2023-12-03T08:41:22.411Z,12.75
2023-12-03T08:43:49.009Z,12.63
2023-12-03T08:46:15.775Z,12.93
2023-12-03T08:48:42.485Z,11.90
2023-12-03T08:51:09.414Z,12.55
2023-12-03T08:53:36.075Z,12.43
2023-12-03T08:56:02.660Z,12.52
2023-12-03T08:58:30.663Z,12.98
2023-12-03T09:00:57.384Z,13.27
2023-12-03T09:03:24.040Z,11.48
2023-12-03T09:05:51.208Z,11.88
2023-12-03T09:08:17.894Z,12.07
2023-12-03T09:10:44.526Z,11.35
2023-12-03T09:13:11.133Z,11.30
2023-12-03T09:15:39.354Z,12.10
2023-12-03T09:18:06.468Z,12.70
2023-12-03T09:20:33.201Z,11.88
2023-12-03T09:22:59.909Z,11.35
2023-12-03T09:25:26.540Z,11.73
2023-12-03T09:27:53.359Z,10.43
2023-12-03T09:30:20.024Z,11.82
2023-12-03T09:32:48.112Z,10.85
2023-12-03T09:35:14.911Z,10.00
2023-12-03T09:37:41.485Z,9.40
2023-12-03T09:40:09.138Z,9.73
2023-12-03T09:42:37.784Z,10.38
2023-12-03T09:45:05.677Z,9.75
2023-12-03T09:47:35.732Z,9.38
2023-12-03T09:50:05.779Z,10.77
2023-12-03T09:52:35.861Z,10.18
2023-12-03T09:55:03.982Z,8.90
2023-12-03T09:57:32.688Z,8.52
2023-12-03T10:00:02.580Z,9.07
2023-12-03T10:02:29.335Z,9.57
2023-12-03T10:04:56.309Z,9.18
2023-12-03T10:07:28.350Z,9.88
2023-12-03T10:09:57.310Z,9.38
2023-12-03T10:12:27.033Z,10.57
2023-12-03T10:14:53.703Z,9.68
2023-12-03T10:17:20.978Z,10.10
2023-12-03T10:19:47.802Z,10.85
2023-12-03T10:22:14.817Z,10.07
2023-12-03T10:24:49.336Z,8.27
2023-12-03T10:27:16.415Z,9.52
2023-12-03T10:29:43.076Z,9.38
2023-12-03T10:32:10.405Z,8.70
2023-12-03T10:34:37.172Z,8.15
2023-12-03T10:37:05.725Z,8.73
2023-12-03T10:39:32.527Z,8.32
2023-12-03T10:42:00.568Z,7.80
2023-12-03T10:44:27.182Z,9.25
2023-12-03T10:46:53.944Z,8.02
2023-12-03T10:49:21.632Z,8.77
2023-12-03T10:51:48.501Z,9.27
2023-12-03T10:54:15.270Z,9.43
2023-12-03T10:56:42.354Z,7.78
2023-12-03T10:59:12.923Z,8.32
2023-12-03T11:01:46.412Z,9.27
2023-12-03T11:04:21.693Z,8.88
2023-12-03T11:06:50.217Z,8.77
2023-12-03T11:09:17.070Z,8.30
2023-12-03T11:11:43.756Z,7.47
2023-12-03T11:14:11.767Z,8.45
2023-12-03T11:16:49.023Z,8.40
2023-12-03T11:19:18.802Z,8.15
2023-12-03T11:21:53.374Z,9.00
2023-12-03T11:24:40.753Z,8.05
2023-12-03T11:27:07.392Z,8.23
2023-12-03T11:29:49.446Z,9.15
2023-12-03T11:32:16.752Z,7.85
2023-12-03T11:34:44.154Z,7.50
2023-12-03T11:37:12.170Z,8.35
2023-12-03T11:39:43.314Z,8.68
2023-12-03T11:42:10.639Z,9.35
2023-12-03T11:44:37.376Z,7.95
2023-12-03T11:47:08.567Z,8.18
2023-12-03T11:49:36.464Z,7.75
2023-12-03T11:52:04.320Z,7.30
2023-12-03T11:54:37.853Z,7.57
2023-12-03T11:57:12.515Z,7.38
2023-12-03T11:59:39.100Z,8.02
2023-12-03T12:02:07.179Z,8.95
2023-12-03T12:04:34.004Z,8.30
2023-12-03T12:07:12.454Z,7.75
2023-12-03T12:09:39.528Z,7.63
2023-12-03T12:12:06.863Z,8.25
2023-12-03T12:14:33.575Z,7.65
2023-12-03T12:17:00.322Z,7.90
2023-12-03T12:19:28.401Z,7.88
2023-12-03T12:21:57.342Z,8.15
2023-12-03T12:24:24.320Z,9.00
2023-12-03T12:26:52.370Z,7.93
2023-12-03T12:29:20.230Z,8.80
2023-12-03T12:31:46.988Z,8.60
2023-12-03T12:34:14.090Z,8.15
2023-12-03T12:36:42.563Z,9.98
2023-12-03T12:39:09.178Z,8.77
2023-12-03T12:41:39.269Z,7.70
2023-12-03T12:44:06.005Z,8.15
2023-12-03T12:46:32.681Z,9.20
2023-12-03T12:49:14.682Z,7.03
2023-12-03T12:51:43.135Z,7.13
2023-12-03T12:54:09.964Z,7.35
2023-12-03T12:56:36.712Z,7.93
2023-12-03T12:59:03.383Z,7.22
2023-12-03T13:01:30.392Z,7.55
2023-12-03T13:03:57.289Z,7.05
2023-12-03T13:06:24.264Z,7.82
2023-12-03T13:08:53.244Z,7.15
2023-12-03T13:11:20.398Z,7.38
2023-12-03T13:13:46.989Z,6.38
2023-12-03T13:16:14.097Z,7.25
2023-12-03T13:18:40.964Z,6.50
2023-12-03T13:21:08.648Z,6.97
2023-12-03T13:23:35.223Z,7.53
2023-12-03T13:26:03.230Z,6.97
2023-12-03T13:28:29.866Z,7.75
2023-12-03T13:30:56.469Z,7.35
2023-12-03T13:33:23.420Z,7.25
2023-12-03T13:35:50.213Z,7.68
2023-12-03T13:38:16.846Z,8.73
2023-12-03T13:40:43.469Z,8.25
2023-12-03T13:43:11.476Z,8.27
2023-12-03T13:45:38.247Z,7.85
2023-12-03T13:48:05.332Z,7.70
2023-12-03T13:50:31.988Z,8.40
2023-12-03T13:52:58.829Z,7.93
2023-12-03T13:55:25.816Z,8.30
2023-12-03T13:57:52.459Z,8.05
2023-12-03T14:00:20.696Z,8.60
2023-12-03T14:02:56.428Z,7.78
2023-12-03T14:05:25.106Z,8.32
2023-12-03T14:07:52.603Z,7.82
2023-12-03T14:10:19.312Z,8.98
2023-12-03T14:12:46.008Z,7.88
2023-12-03T14:15:12.896Z,7.78
2023-12-03T14:17:41.022Z,7.85
2023-12-03T14:20:09.526Z,7.68
2023-12-03T14:22:36.335Z,8.95
2023-12-03T14:25:03.475Z,8.35
2023-12-03T14:27:30.328Z,8.23
2023-12-03T14:29:57.085Z,8.15
2023-12-03T14:32:23.835Z,8.60
2023-12-03T14:34:51.845Z,8.60
2023-12-03T14:37:18.485Z,8.55
2023-12-03T14:39:45.109Z,8.55
2023-12-03T14:42:11.719Z,9.75
2023-12-03T14:44:38.353Z,10.02
2023-12-03T14:47:05.183Z,9.93
2023-12-03T14:49:31.983Z,10.00
2023-12-03T14:52:00.184Z,10.15
2023-12-03T14:54:26.962Z,11.27
2023-12-03T14:56:53.878Z,10.73
2023-12-03T14:59:20.587Z,11.40
2023-12-03T15:01:47.360Z,11.13
2023-12-03T15:04:14.130Z,9.73
2023-12-03T15:06:40.761Z,9.48
2023-12-03T15:09:08.795Z,9.40
2023-12-03T15:11:35.520Z,9.25
2023-12-03T15:14:02.291Z,9.13
2023-12-03T15:16:28.972Z,9.45
2023-12-03T15:18:56.509Z,9.73
2023-12-03T15:21:23.228Z,8.23
2023-12-03T15:23:49.834Z,9.70
2023-12-03T15:26:18.027Z,9.57
2023-12-03T15:28:44.681Z,9.98
2023-12-03T15:31:11.632Z,9.13
2023-12-03T15:33:38.554Z,9.18
2023-12-03T15:36:06.812Z,9.38
2023-12-03T15:38:33.612Z,9.40
2023-12-03T15:41:00.285Z,10.60
2023-12-03T15:43:34.235Z,9.68
2023-12-03T15:46:08.279Z,9.57
2023-12-03T15:48:35.389Z,10.05
2023-12-03T15:51:02.168Z,9.05
2023-12-03T15:53:28.757Z,8.50
2023-12-03T15:55:56.220Z,8.07
2023-12-03T15:58:22.942Z,8.02
2023-12-03T16:00:50.931Z,8.88
2023-12-03T16:03:17.593Z,9.30
2023-12-03T16:05:44.389Z,12.70
2023-12-03T16:08:11.088Z,11.25
2023-12-03T16:10:37.806Z,10.77
2023-12-03T16:13:04.463Z,11.18
2023-12-03T16:15:31.164Z,10.35
2023-12-03T16:17:59.220Z,10.88
2023-12-03T16:20:25.951Z,10.00
2023-12-03T16:22:53.125Z,9.38
2023-12-03T16:25:20.044Z,9.20
2023-12-03T16:27:46.667Z,9.52
2023-12-03T16:30:13.598Z,9.15
2023-12-03T16:32:40.427Z,9.63
2023-12-03T16:35:09.555Z,9.18
2023-12-03T16:37:36.366Z,9.25
2023-12-03T16:40:03.571Z,9.27
2023-12-03T16:42:30.789Z,9.77
2023-12-03T16:44:57.883Z,10.65
2023-12-03T16:47:24.642Z,9.25
2023-12-03T16:49:51.457Z,9.20
2023-12-03T16:52:19.417Z,9.85
2023-12-03T16:54:46.229Z,9.35
2023-12-03T16:57:13.014Z,10.00
2023-12-03T16:59:39.751Z,9.30
2023-12-03T17:02:06.397Z,11.75
2023-12-03T17:04:33.035Z,14.60
2023-12-03T17:07:00.296Z,12.07
2023-12-03T17:09:28.384Z,11.63
2023-12-03T17:11:55.088Z,11.73
2023-12-03T17:14:21.766Z,9.98
2023-12-03T17:16:48.396Z,10.93
2023-12-03T17:19:15.188Z,13.48
2023-12-03T17:21:42.126Z,12.57
2023-12-03T17:24:08.786Z,13.27
2023-12-03T17:26:38.787Z,12.15
2023-12-03T17:29:05.431Z,13.48
2023-12-03T17:31:33.180Z,12.82
2023-12-03T17:34:00.513Z,12.13
2023-12-03T17:36:27.253Z,11.00
2023-12-03T17:38:53.933Z,11.00
2023-12-03T17:41:20.607Z,11.68
2023-12-03T17:43:48.621Z,11.75
2023-12-03T17:46:15.273Z,10.38
2023-12-03T17:48:41.982Z,10.13
2023-12-03T17:51:08.945Z,10.55
2023-12-03T17:53:35.731Z,9.55
2023-12-03T17:56:02.565Z,10.90
2023-12-03T17:58:29.280Z,9.68
2023-12-03T18:00:57.885Z,9.65
2023-12-03T18:03:24.695Z,9.25
2023-12-03T18:05:51.686Z,9.20
2023-12-03T18:08:18.463Z,9.10
2023-12-03T18:10:45.343Z,9.38
2023-12-03T18:13:12.402Z,9.93
2023-12-03T18:15:39.433Z,9.75
2023-12-03T18:18:07.598Z,9.90
2023-12-03T18:20:34.544Z,9.80
2023-12-03T18:23:01.371Z,9.57
2023-12-03T18:25:28.012Z,9.43
2023-12-03T18:27:54.659Z,9.02
2023-12-03T18:30:21.416Z,9.50
2023-12-03T18:32:48.098Z,10.65
2023-12-03T18:35:16.366Z,11.25
2023-12-03T18:37:42.968Z,12.50
2023-12-03T18:40:10.433Z,13.82
2023-12-03T18:42:37.229Z,11.70
2023-12-03T18:45:04.643Z,10.48
2023-12-03T18:47:31.289Z,9.38
2023-12-03T18:49:57.949Z,9.35
2023-12-03T18:52:25.961Z,8.98
2023-12-03T18:54:52.799Z,8.90
2023-12-03T18:57:19.528Z,8.57
2023-12-03T18:59:46.496Z,7.95
2023-12-03T19:02:13.273Z,7.57
2023-12-03T19:04:39.993Z,7.53
2023-12-03T19:07:06.842Z,8.02
2023-12-03T19:09:34.848Z,8.88
2023-12-03T19:12:01.640Z,7.70
2023-12-03T19:14:28.240Z,8.45
2023-12-03T19:16:55.031Z,9.00
2023-12-03T19:19:21.799Z,7.65
2023-12-03T19:21:48.802Z,9.65
2023-12-03T19:24:15.448Z,8.07
2023-12-03T19:26:43.401Z,8.63
2023-12-03T19:29:09.992Z,8.43
2023-12-03T19:31:40.837Z,7.90
2023-12-03T19:34:07.742Z,9.05
2023-12-03T19:36:34.537Z,9.32
2023-12-03T19:39:01.325Z,9.10
2023-12-03T19:41:27.965Z,8.68
2023-12-03T19:43:56.102Z,8.25
2023-12-03T19:46:22.793Z,9.02
2023-12-03T19:48:49.545Z,9.13
2023-12-03T19:51:16.293Z,8.77
2023-12-03T19:53:42.922Z,9.27
2023-12-03T19:56:10.385Z,9.02
2023-12-03T19:58:37.213Z,8.95
2023-12-03T20:01:05.615Z,9.65
2023-12-03T20:03:33.385Z,11.00
2023-12-03T20:06:01.193Z,11.43
2023-12-03T20:08:27.838Z,21.10
2023-12-03T20:10:54.520Z,13.10
2023-12-03T20:13:21.293Z,14.90
2023-12-03T20:15:48.030Z,12.48
2023-12-03T20:18:16.225Z,12.93
2023-12-03T20:20:42.846Z,14.45
2023-12-03T20:23:12.791Z,12.82
2023-12-03T20:25:39.434Z,12.52
2023-12-03T20:28:06.255Z,15.15
2023-12-03T20:30:32.857Z,13.85
2023-12-03T20:32:59.912Z,12.82
2023-12-03T20:35:28.065Z,13.40
2023-12-03T20:37:54.684Z,13.25
2023-12-03T20:40:21.313Z,12.65
2023-12-03T20:42:48.062Z,12.18
2023-12-03T20:45:15.060Z,11.93
2023-12-03T20:47:41.722Z,12.43
2023-12-03T20:50:09.124Z,11.88
2023-12-03T20:52:37.110Z,12.25
2023-12-03T20:55:04.510Z,11.20
2023-12-03T20:57:31.157Z,11.68
2023-12-03T20:59:58.686Z,11.65
2023-12-03T21:02:25.294Z,12.35
2023-12-03T21:04:52.196Z,11.63
2023-12-03T21:07:18.995Z,17.73
2023-12-03T21:09:47.090Z,16.13
2023-12-03T21:12:13.749Z,14.63
2023-12-03T21:14:40.294Z,14.27
2023-12-03T21:17:06.966Z,14.60
2023-12-03T21:19:33.610Z,13.98
2023-12-03T21:22:00.737Z,13.05
2023-12-03T21:24:27.475Z,13.77
2023-12-03T21:26:55.516Z,13.07
2023-12-03T21:29:23.717Z,17.45
2023-12-03T21:31:50.403Z,16.60
2023-12-03T21:34:17.271Z,16.90
2023-12-03T21:36:44.163Z,19.75
2023-12-03T21:39:10.919Z,15.43
2023-12-03T21:41:37.631Z,16.30
2023-12-03T21:44:05.962Z,17.88
2023-12-03T21:46:32.852Z,18.15
2023-12-03T21:48:59.897Z,17.70
2023-12-03T21:51:26.750Z,16.58
2023-12-03T21:53:53.469Z,15.43
2023-12-03T21:56:20.156Z,14.15
2023-12-03T21:58:46.720Z,14.60
2023-12-03T22:01:15.200Z,13.98
2023-12-03T22:03:42.122Z,14.48
2023-12-03T22:06:09.955Z,15.43
2023-12-03T22:08:36.579Z,13.07
2023-12-03T22:11:03.298Z,14.38
2023-12-03T22:13:30.606Z,14.95
2023-12-03T22:15:57.752Z,13.75
2023-12-03T22:18:25.887Z,12.77
2023-12-03T22:20:52.701Z,12.40
2023-12-03T22:23:19.481Z,13.32
2023-12-03T22:25:46.230Z,12.10
2023-12-03T22:28:12.895Z,13.70
2023-12-03T22:30:39.893Z,13.45
2023-12-03T22:33:06.626Z,13.15
2023-12-03T22:35:34.763Z,12.95
2023-12-03T22:38:01.567Z,14.48
2023-12-03T22:40:28.177Z,12.15
2023-12-03T22:42:55.224Z,14.65
2023-12-03T22:45:22.032Z,13.05
2023-12-03T22:47:48.616Z,14.27
2023-12-03T22:50:15.275Z,14.07
2023-12-03T22:52:43.265Z,27.42
2023-12-03T22:55:09.951Z,25.83
2023-12-03T22:57:36.615Z,39.63
2023-12-03T23:00:04.066Z,43.80
2023-12-03T23:02:30.675Z,102.82
2023-12-03T23:04:57.666Z,47.80
2023-12-03T23:07:24.388Z,17.10
2023-12-03T23:09:52.432Z,15.57
2023-12-03T23:12:19.614Z,16.25
2023-12-03T23:14:46.417Z,17.40
2023-12-03T23:17:13.521Z,23.30
2023-12-03T23:19:40.236Z,32.38
2023-12-03T23:22:06.897Z,16.25
2023-12-03T23:24:33.662Z,17.25
2023-12-03T23:27:07.440Z,18.67
2023-12-03T23:29:41.209Z,44.80
2023-12-03T23:32:07.813Z,71.85
2023-12-03T23:34:34.427Z,64.75
2023-12-03T23:37:01.439Z,58.05
2023-12-03T23:39:28.873Z,34.53
2023-12-03T23:41:55.676Z,33.63
2023-12-03T23:44:23.690Z,38.83
2023-12-03T23:46:50.282Z,28.38
2023-12-03T23:49:17.344Z,16.50
2023-12-03T23:51:44.037Z,19.63
2023-12-03T23:54:12.164Z,20.52
2023-12-03T23:56:38.845Z,31.02
2023-12-03T23:59:05.551Z,32.47
